Time,TemperatureF,DewpointF,PressureIn,WindDirection,WindDirectionDegrees,WindSpeedMPH,WindSpeedGustMPH,Humidity,HourlyPrecipIn,Conditions,Clouds,dailyrainin,SoftwareType,DateUTC
2013-05-21 00:01:00,58.0,45.0,-100.00,ESE,105,0.0,1.0,61,-99.99,,,-99.99,,2013-05-21 07:01:00,
2013-05-21 02:01:00,53.0,43.0,-100.00,SW,225,0.0,2.0,68,-99.99,,,-99.99,,2013-05-21 09:01:00,
2013-05-21 03:02:00,53.0,42.0,-100.00,NE,35,1.0,1.0,66,-99.99,,,-99.99,,2013-05-21 10:02:00,
2013-05-21 03:12:00,53.0,42.0,-100.00,NE,35,1.0,1.0,66,-99.99,,,-99.99,,2013-05-21 10:12:00,
2013-05-21 05:01:00,53.0,46.0,-100.00,SE,145,3.0,5.0,77,-99.99,,,-99.99,,2013-05-21 12:01:00,
2013-05-21 05:11:00,53.0,46.0,-100.00,SE,145,3.0,5.0,77,-99.99,,,-99.99,,2013-05-21 12:11:00,
2013-05-21 06:01:00,56.0,43.0,-100.00,SSE,165,3.0,7.0,61,-99.99,,,-99.99,,2013-05-21 13:01:00,
2013-05-21 06:10:00,55.0,44.0,-100.00,SSE,160,13.0,17.0,66,-99.99,,,-99.99,,2013-05-21 13:10:00,
2013-05-21 07:01:00,55.0,44.0,-100.00,SSE,160,13.0,17.0,66,-99.99,,,-99.99,,2013-05-21 14:01:00,
2013-05-21 08:01:00,56.0,47.0,-100.00,SSE,160,7.0,17.0,71,-99.99,,,-99.99,,2013-05-21 15:01:00,
2013-05-21 08:10:00,57.0,46.0,-100.00,SSE,160,9.0,15.0,66,-99.99,,,-99.99,,2013-05-21 15:10:00,
2013-05-21 09:00:00,57.0,48.0,-100.00,South,170,9.0,14.0,71,-99.99,,,-99.99,,2013-05-21 16:00:00,
2013-05-21 09:02:00,57.0,46.0,-100.00,SSE,160,9.0,15.0,66,-99.99,,,-99.99,,2013-05-21 16:02:00,
2013-05-21 10:10:00,54.0,50.0,-100.00,SSE,165,8.0,13.0,86,-99.99,,,-99.99,,2013-05-21 17:10:00,
2013-05-21 11:01:00,54.0,50.0,-100.00,SSE,165,8.0,13.0,86,-99.99,,,-99.99,,2013-05-21 18:01:00,
2013-05-21 11:20:00,53.0,51.0,-100.00,SSE,150,6.0,10.0,92,-99.99,,,-99.99,,2013-05-21 18:20:00,
2013-05-21 12:01:00,53.0,51.0,-100.00,SSE,150,6.0,10.0,92,-99.99,,,-99.99,,2013-05-21 19:01:00,
2013-05-21 12:10:00,53.0,51.0,-100.00,SSE,160,7.0,13.0,92,-99.99,,,-99.99,,2013-05-21 19:10:00,
2013-05-21 12:11:00,53.0,51.0,-100.00,SSE,150,6.0,10.0,92,-99.99,,,-99.99,,2013-05-21 19:11:00,
2013-05-21 13:03:00,53.0,51.0,-100.00,SSE,160,7.0,13.0,92,-99.99,,,-99.99,,2013-05-21 20:03:00,
2013-05-21 14:02:00,53.0,50.0,-100.00,SSE,160,10.0,17.0,89,-99.99,,,-99.99,,2013-05-21 21:02:00,
2013-05-21 14:10:00,53.0,47.0,-100.00,NNE,25,3.0,7.0,79,-99.99,,,-99.99,,2013-05-21 21:10:00,
2013-05-21 14:11:00,53.0,50.0,-100.00,SSE,160,10.0,17.0,89,-99.99,,,-99.99,,2013-05-21 21:11:00,
2013-05-21 15:02:00,53.0,47.0,-100.00,NNE,25,3.0,7.0,79,-99.99,,,-99.99,,2013-05-21 22:02:00,
2013-05-21 16:02:00,55.0,46.0,-100.00,SSE,150,7.0,14.0,71,-99.99,,,-99.99,,2013-05-21 23:02:00,
2013-05-21 16:12:00,55.0,46.0,-100.00,SSE,150,7.0,14.0,71,-99.99,,,-99.99,,2013-05-21 23:12:00,
2013-05-21 17:01:00,56.0,44.0,-100.00,SSE,155,6.0,9.0,63,-99.99,,,-99.99,,2013-05-22 00:01:00,
2013-05-21 18:01:00,58.0,42.0,-100.00,East,85,6.0,10.0,55,-99.99,,,-99.99,,2013-05-22 01:01:00,
2013-05-21 18:11:00,58.0,42.0,-100.00,East,85,6.0,10.0,55,-99.99,,,-99.99,,2013-05-22 01:11:00,
2013-05-21 19:01:00,59.0,40.0,-100.00,SE,135,6.0,7.0,49,-99.99,,,-99.99,,2013-05-22 02:01:00,
2013-05-21 20:01:00,59.0,39.0,-100.00,SSE,150,6.0,9.0,47,-99.99,,,-99.99,,2013-05-22 03:01:00,
2013-05-21 20:11:00,59.0,39.0,-100.00,SSE,150,6.0,9.0,47,-99.99,,,-99.99,,2013-05-22 03:11:00,
2013-05-21 21:03:00,58.0,42.0,-100.00,ESE,120,5.0,9.0,55,-99.99,,,-99.99,,2013-05-22 04:03:00,
2013-05-21 22:02:00,54.0,42.0,-100.00,East,100,2.0,3.0,63,-99.99,,,-99.99,,2013-05-22 05:02:00,
2013-05-21 22:11:00,54.0,42.0,-100.00,East,100,2.0,3.0,63,-99.99,,,-99.99,,2013-05-22 05:11:00,
2013-05-21 23:01:00,54.0,37.0,-100.00,SSE,150,9.0,12.0,52,-99.99,,,-99.99,,2013-05-22 06:01:00,
2013-05-21 23:10:00,53.0,38.0,-100.00,NNE,30,3.0,7.0,56,-99.99,,,-99.99,,2013-05-22 06:10:00,